sensor_id;sensor_type;location;lat;lon;timestamp;P1;durP1;ratioP1;P2;durP2;ratioP2
23714;SDS011;12036;50.858;4.472;2022-07-23T00:00:15;17.27;;;13.00;;
23714;SDS011;12036;50.858;4.472;2022-07-23T00:02:42;16.80;;;12.43;;
23714;SDS011;12036;50.858;4.472;2022-07-23T00:05:08;17.73;;;13.10;;
23714;SDS011;12036;50.858;4.472;2022-07-23T00:07:34;18.88;;;12.25;;
23714;SDS011;12036;50.858;4.472;2022-07-23T00:10:00;16.33;;;12.43;;
23714;SDS011;12036;50.858;4.472;2022-07-23T00:12:26;19.08;;;12.90;;
23714;SDS011;12036;50.858;4.472;2022-07-23T00:14:51;16.50;;;12.55;;
23714;SDS011;12036;50.858;4.472;2022-07-23T00:17:17;19.40;;;13.50;;
23714;SDS011;12036;50.858;4.472;2022-07-23T00:19:43;20.05;;;13.68;;
23714;SDS011;12036;50.858;4.472;2022-07-23T00:22:08;28.15;;;13.48;;
23714;SDS011;12036;50.858;4.472;2022-07-23T00:24:34;20.45;;;13.05;;
23714;SDS011;12036;50.858;4.472;2022-07-23T00:27:00;19.75;;;12.98;;
23714;SDS011;12036;50.858;4.472;2022-07-23T00:29:25;20.73;;;13.35;;
23714;SDS011;12036;50.858;4.472;2022-07-23T00:31:51;16.83;;;12.45;;
23714;SDS011;12036;50.858;4.472;2022-07-23T00:34:17;17.52;;;13.07;;
23714;SDS011;12036;50.858;4.472;2022-07-23T00:36:42;18.98;;;13.65;;
23714;SDS011;12036;50.858;4.472;2022-07-23T00:39:08;21.23;;;13.32;;
23714;SDS011;12036;50.858;4.472;2022-07-23T00:41:34;20.55;;;14.30;;
23714;SDS011;12036;50.858;4.472;2022-07-23T00:46:49;19.70;;;12.52;;
23714;SDS011;12036;50.858;4.472;2022-07-23T00:49:19;20.63;;;13.17;;
23714;SDS011;12036;50.858;4.472;2022-07-23T00:51:49;19.83;;;13.73;;
23714;SDS011;12036;50.858;4.472;2022-07-23T00:54:15;20.73;;;13.20;;
23714;SDS011;12036;50.858;4.472;2022-07-23T00:56:45;20.42;;;13.07;;
23714;SDS011;12036;50.858;4.472;2022-07-23T00:59:11;17.35;;;13.20;;
23714;SDS011;12036;50.858;4.472;2022-07-23T01:01:38;22.70;;;14.27;;
23714;SDS011;12036;50.858;4.472;2022-07-23T01:04:04;20.60;;;14.18;;
23714;SDS011;12036;50.858;4.472;2022-07-23T01:06:30;19.10;;;13.70;;
23714;SDS011;12036;50.858;4.472;2022-07-23T01:09:00;19.38;;;13.48;;
23714;SDS011;12036;50.858;4.472;2022-07-23T01:11:26;20.40;;;14.43;;
23714;SDS011;12036;50.858;4.472;2022-07-23T01:13:52;27.02;;;14.18;;
23714;SDS011;12036;50.858;4.472;2022-07-23T01:16:18;19.75;;;12.98;;
23714;SDS011;12036;50.858;4.472;2022-07-23T01:18:44;20.65;;;13.13;;
23714;SDS011;12036;50.858;4.472;2022-07-23T01:21:11;19.75;;;13.98;;
23714;SDS011;12036;50.858;4.472;2022-07-23T01:23:40;19.27;;;14.55;;
23714;SDS011;12036;50.858;4.472;2022-07-23T01:26:06;19.80;;;13.90;;
23714;SDS011;12036;50.858;4.472;2022-07-23T01:28:32;18.27;;;14.30;;
23714;SDS011;12036;50.858;4.472;2022-07-23T01:30:57;19.90;;;14.48;;
23714;SDS011;12036;50.858;4.472;2022-07-23T01:33:23;19.25;;;14.52;;
23714;SDS011;12036;50.858;4.472;2022-07-23T01:35:49;21.83;;;14.60;;
23714;SDS011;12036;50.858;4.472;2022-07-23T01:38:14;25.45;;;16.15;;
23714;SDS011;12036;50.858;4.472;2022-07-23T01:40:40;23.58;;;14.95;;
23714;SDS011;12036;50.858;4.472;2022-07-23T01:43:05;22.48;;;15.80;;
23714;SDS011;12036;50.858;4.472;2022-07-23T01:45:31;20.70;;;15.52;;
23714;SDS011;12036;50.858;4.472;2022-07-23T01:47:57;26.15;;;16.88;;
23714;SDS011;12036;50.858;4.472;2022-07-23T01:50:22;24.67;;;15.77;;
23714;SDS011;12036;50.858;4.472;2022-07-23T01:52:48;22.45;;;15.38;;
23714;SDS011;12036;50.858;4.472;2022-07-23T01:55:14;27.08;;;17.55;;
23714;SDS011;12036;50.858;4.472;2022-07-23T01:57:39;30.65;;;18.40;;
23714;SDS011;12036;50.858;4.472;2022-07-23T02:00:05;23.98;;;17.50;;
23714;SDS011;12036;50.858;4.472;2022-07-23T02:02:31;22.20;;;17.58;;
23714;SDS011;12036;50.858;4.472;2022-07-23T02:04:57;27.98;;;17.60;;
23714;SDS011;12036;50.858;4.472;2022-07-23T02:07:22;24.45;;;17.17;;
23714;SDS011;12036;50.858;4.472;2022-07-23T02:09:48;22.23;;;16.70;;
23714;SDS011;12036;50.858;4.472;2022-07-23T02:12:14;24.67;;;16.20;;
23714;SDS011;12036;50.858;4.472;2022-07-23T02:14:39;23.77;;;16.02;;
23714;SDS011;12036;50.858;4.472;2022-07-23T02:17:05;23.42;;;15.98;;
23714;SDS011;12036;50.858;4.472;2022-07-23T02:19:31;24.17;;;14.73;;
23714;SDS011;12036;50.858;4.472;2022-07-23T02:21:56;27.60;;;17.13;;
23714;SDS011;12036;50.858;4.472;2022-07-23T02:24:22;21.20;;;15.80;;
23714;SDS011;12036;50.858;4.472;2022-07-23T02:26:48;24.05;;;17.00;;
23714;SDS011;12036;50.858;4.472;2022-07-23T02:29:13;23.20;;;16.35;;
23714;SDS011;12036;50.858;4.472;2022-07-23T02:31:39;22.95;;;15.88;;
23714;SDS011;12036;50.858;4.472;2022-07-23T02:34:05;19.25;;;15.38;;
23714;SDS011;12036;50.858;4.472;2022-07-23T02:36:30;18.63;;;14.98;;
23714;SDS011;12036;50.858;4.472;2022-07-23T02:38:56;23.77;;;15.20;;
23714;SDS011;12036;50.858;4.472;2022-07-23T02:41:22;22.25;;;17.27;;
23714;SDS011;12036;50.858;4.472;2022-07-23T02:43:48;23.23;;;16.13;;
23714;SDS011;12036;50.858;4.472;2022-07-23T02:46:13;20.70;;;16.13;;
23714;SDS011;12036;50.858;4.472;2022-07-23T02:48:39;19.90;;;15.30;;
23714;SDS011;12036;50.858;4.472;2022-07-23T02:51:05;22.48;;;15.55;;
23714;SDS011;12036;50.858;4.472;2022-07-23T02:53:30;17.33;;;13.80;;
23714;SDS011;12036;50.858;4.472;2022-07-23T02:55:56;21.35;;;15.63;;
23714;SDS011;12036;50.858;4.472;2022-07-23T02:58:22;23.35;;;15.73;;
23714;SDS011;12036;50.858;4.472;2022-07-23T03:00:47;21.00;;;14.90;;
23714;SDS011;12036;50.858;4.472;2022-07-23T03:03:13;22.60;;;14.82;;
23714;SDS011;12036;50.858;4.472;2022-07-23T03:05:39;19.08;;;14.73;;
23714;SDS011;12036;50.858;4.472;2022-07-23T03:08:04;20.08;;;14.20;;
23714;SDS011;12036;50.858;4.472;2022-07-23T03:10:30;25.73;;;15.70;;
23714;SDS011;12036;50.858;4.472;2022-07-23T03:12:55;25.38;;;16.33;;
23714;SDS011;12036;50.858;4.472;2022-07-23T03:15:21;22.05;;;15.43;;
23714;SDS011;12036;50.858;4.472;2022-07-23T03:17:47;20.13;;;15.05;;
23714;SDS011;12036;50.858;4.472;2022-07-23T03:20:12;24.80;;;15.98;;
23714;SDS011;12036;50.858;4.472;2022-07-23T03:22:38;20.27;;;15.02;;
23714;SDS011;12036;50.858;4.472;2022-07-23T03:25:04;25.02;;;16.15;;
23714;SDS011;12036;50.858;4.472;2022-07-23T03:27:30;23.90;;;16.55;;
23714;SDS011;12036;50.858;4.472;2022-07-23T03:29:56;23.23;;;15.85;;
23714;SDS011;12036;50.858;4.472;2022-07-23T03:32:23;23.98;;;15.05;;
23714;SDS011;12036;50.858;4.472;2022-07-23T03:34:50;23.67;;;16.10;;
23714;SDS011;12036;50.858;4.472;2022-07-23T03:37:16;22.00;;;15.65;;
23714;SDS011;12036;50.858;4.472;2022-07-23T03:39:42;19.58;;;15.30;;
23714;SDS011;12036;50.858;4.472;2022-07-23T03:42:09;22.13;;;15.50;;
23714;SDS011;12036;50.858;4.472;2022-07-23T03:44:35;19.05;;;14.43;;
23714;SDS011;12036;50.858;4.472;2022-07-23T03:47:04;19.85;;;14.60;;
23714;SDS011;12036;50.858;4.472;2022-07-23T03:49:30;19.92;;;14.82;;
23714;SDS011;12036;50.858;4.472;2022-07-23T03:51:56;18.55;;;14.32;;
23714;SDS011;12036;50.858;4.472;2022-07-23T03:54:22;19.00;;;14.68;;
23714;SDS011;12036;50.858;4.472;2022-07-23T03:56:47;21.45;;;14.65;;
23714;SDS011;12036;50.858;4.472;2022-07-23T03:59:13;19.55;;;14.82;;
23714;SDS011;12036;50.858;4.472;2022-07-23T04:01:39;19.20;;;14.88;;
23714;SDS011;12036;50.858;4.472;2022-07-23T04:04:05;21.17;;;14.52;;
23714;SDS011;12036;50.858;4.472;2022-07-23T04:06:30;20.88;;;14.50;;
23714;SDS011;12036;50.858;4.472;2022-07-23T04:08:57;19.35;;;14.02;;
23714;SDS011;12036;50.858;4.472;2022-07-23T04:11:23;18.65;;;14.00;;
23714;SDS011;12036;50.858;4.472;2022-07-23T04:13:48;18.92;;;14.48;;
23714;SDS011;12036;50.858;4.472;2022-07-23T04:16:14;18.95;;;14.40;;
23714;SDS011;12036;50.858;4.472;2022-07-23T04:18:40;22.38;;;15.15;;
23714;SDS011;12036;50.858;4.472;2022-07-23T04:21:05;20.15;;;14.30;;
23714;SDS011;12036;50.858;4.472;2022-07-23T04:23:31;18.55;;;13.68;;
23714;SDS011;12036;50.858;4.472;2022-07-23T04:25:57;24.45;;;13.98;;
23714;SDS011;12036;50.858;4.472;2022-07-23T04:28:22;18.20;;;14.07;;
23714;SDS011;12036;50.858;4.472;2022-07-23T04:30:48;20.40;;;15.00;;
23714;SDS011;12036;50.858;4.472;2022-07-23T04:33:13;18.67;;;13.68;;
23714;SDS011;12036;50.858;4.472;2022-07-23T04:35:39;23.13;;;15.80;;
23714;SDS011;12036;50.858;4.472;2022-07-23T04:38:05;22.58;;;14.98;;
23714;SDS011;12036;50.858;4.472;2022-07-23T04:40:30;18.65;;;14.60;;
23714;SDS011;12036;50.858;4.472;2022-07-23T04:42:56;20.98;;;14.38;;
23714;SDS011;12036;50.858;4.472;2022-07-23T04:45:22;16.90;;;13.52;;
23714;SDS011;12036;50.858;4.472;2022-07-23T04:47:49;16.90;;;12.90;;
23714;SDS011;12036;50.858;4.472;2022-07-23T04:50:15;19.83;;;13.88;;
23714;SDS011;12036;50.858;4.472;2022-07-23T04:52:46;18.73;;;12.52;;
23714;SDS011;12036;50.858;4.472;2022-07-23T04:55:13;16.85;;;12.85;;
23714;SDS011;12036;50.858;4.472;2022-07-23T04:57:39;16.80;;;12.32;;
23714;SDS011;12036;50.858;4.472;2022-07-23T05:00:06;15.95;;;11.32;;
23714;SDS011;12036;50.858;4.472;2022-07-23T05:02:33;15.10;;;12.13;;
23714;SDS011;12036;50.858;4.472;2022-07-23T05:04:58;16.15;;;11.75;;
23714;SDS011;12036;50.858;4.472;2022-07-23T05:07:24;16.67;;;12.30;;
23714;SDS011;12036;50.858;4.472;2022-07-23T05:09:50;16.02;;;11.07;;
23714;SDS011;12036;50.858;4.472;2022-07-23T05:12:15;13.45;;;10.85;;
23714;SDS011;12036;50.858;4.472;2022-07-23T05:14:41;18.25;;;11.18;;
23714;SDS011;12036;50.858;4.472;2022-07-23T05:17:07;14.32;;;11.50;;
23714;SDS011;12036;50.858;4.472;2022-07-23T05:19:33;13.65;;;10.98;;
23714;SDS011;12036;50.858;4.472;2022-07-23T05:21:59;16.15;;;12.02;;
23714;SDS011;12036;50.858;4.472;2022-07-23T05:24:25;17.40;;;12.32;;
23714;SDS011;12036;50.858;4.472;2022-07-23T05:26:51;15.32;;;12.13;;
23714;SDS011;12036;50.858;4.472;2022-07-23T05:29:17;16.17;;;11.98;;
23714;SDS011;12036;50.858;4.472;2022-07-23T05:31:43;20.75;;;13.23;;
23714;SDS011;12036;50.858;4.472;2022-07-23T05:34:09;20.45;;;13.00;;
23714;SDS011;12036;50.858;4.472;2022-07-23T05:36:34;15.85;;;12.70;;
23714;SDS011;12036;50.858;4.472;2022-07-23T05:39:00;16.05;;;12.65;;
23714;SDS011;12036;50.858;4.472;2022-07-23T05:41:26;17.42;;;12.27;;
23714;SDS011;12036;50.858;4.472;2022-07-23T05:43:52;17.95;;;12.80;;
23714;SDS011;12036;50.858;4.472;2022-07-23T05:46:17;19.67;;;13.27;;
23714;SDS011;12036;50.858;4.472;2022-07-23T05:48:43;17.92;;;12.48;;
23714;SDS011;12036;50.858;4.472;2022-07-23T05:51:11;17.85;;;13.25;;
23714;SDS011;12036;50.858;4.472;2022-07-23T05:53:36;19.17;;;12.93;;
23714;SDS011;12036;50.858;4.472;2022-07-23T05:56:03;19.63;;;13.80;;
23714;SDS011;12036;50.858;4.472;2022-07-23T05:58:29;17.33;;;13.48;;
23714;SDS011;12036;50.858;4.472;2022-07-23T06:00:55;17.55;;;12.25;;
23714;SDS011;12036;50.858;4.472;2022-07-23T06:03:20;15.40;;;12.63;;
23714;SDS011;12036;50.858;4.472;2022-07-23T06:05:46;16.67;;;13.27;;
23714;SDS011;12036;50.858;4.472;2022-07-23T06:08:12;19.10;;;12.20;;
23714;SDS011;12036;50.858;4.472;2022-07-23T06:10:37;14.82;;;12.27;;
23714;SDS011;12036;50.858;4.472;2022-07-23T06:13:03;13.90;;;11.43;;
23714;SDS011;12036;50.858;4.472;2022-07-23T06:15:29;15.35;;;11.65;;
23714;SDS011;12036;50.858;4.472;2022-07-23T06:17:55;15.00;;;11.73;;
23714;SDS011;12036;50.858;4.472;2022-07-23T06:20:21;17.60;;;11.70;;
23714;SDS011;12036;50.858;4.472;2022-07-23T06:22:46;15.32;;;11.18;;
23714;SDS011;12036;50.858;4.472;2022-07-23T06:25:12;17.95;;;11.15;;
23714;SDS011;12036;50.858;4.472;2022-07-23T06:27:38;15.73;;;10.82;;
23714;SDS011;12036;50.858;4.472;2022-07-23T06:30:03;15.93;;;11.25;;
23714;SDS011;12036;50.858;4.472;2022-07-23T06:32:30;13.95;;;11.18;;
23714;SDS011;12036;50.858;4.472;2022-07-23T06:34:56;17.08;;;11.65;;
23714;SDS011;12036;50.858;4.472;2022-07-23T06:37:21;14.00;;;11.25;;
23714;SDS011;12036;50.858;4.472;2022-07-23T06:39:47;14.27;;;10.93;;
23714;SDS011;12036;50.858;4.472;2022-07-23T06:42:13;17.30;;;10.95;;
23714;SDS011;12036;50.858;4.472;2022-07-23T06:44:39;20.42;;;11.27;;
23714;SDS011;12036;50.858;4.472;2022-07-23T06:47:05;12.75;;;9.90;;
23714;SDS011;12036;50.858;4.472;2022-07-23T06:49:31;16.42;;;10.30;;
23714;SDS011;12036;50.858;4.472;2022-07-23T06:51:56;17.35;;;11.15;;
23714;SDS011;12036;50.858;4.472;2022-07-23T06:54:22;17.83;;;10.85;;
23714;SDS011;12036;50.858;4.472;2022-07-23T06:56:48;14.70;;;9.68;;
23714;SDS011;12036;50.858;4.472;2022-07-23T06:59:14;15.15;;;10.55;;
23714;SDS011;12036;50.858;4.472;2022-07-23T07:01:39;13.10;;;9.88;;
23714;SDS011;12036;50.858;4.472;2022-07-23T07:04:05;15.80;;;10.45;;
23714;SDS011;12036;50.858;4.472;2022-07-23T07:06:31;14.60;;;10.40;;
23714;SDS011;12036;50.858;4.472;2022-07-23T07:08:56;13.00;;;9.25;;
23714;SDS011;12036;50.858;4.472;2022-07-23T07:11:22;11.18;;;9.07;;
23714;SDS011;12036;50.858;4.472;2022-07-23T07:13:49;11.20;;;9.38;;
23714;SDS011;12036;50.858;4.472;2022-07-23T07:16:15;12.80;;;9.15;;
23714;SDS011;12036;50.858;4.472;2022-07-23T07:18:40;13.10;;;9.27;;
23714;SDS011;12036;50.858;4.472;2022-07-23T07:21:06;11.98;;;9.65;;
23714;SDS011;12036;50.858;4.472;2022-07-23T07:23:31;11.88;;;8.95;;
23714;SDS011;12036;50.858;4.472;2022-07-23T07:25:57;13.70;;;7.90;;
23714;SDS011;12036;50.858;4.472;2022-07-23T07:28:23;13.18;;;8.85;;
23714;SDS011;12036;50.858;4.472;2022-07-23T07:30:48;11.20;;;9.07;;
23714;SDS011;12036;50.858;4.472;2022-07-23T07:33:14;15.48;;;9.40;;
23714;SDS011;12036;50.858;4.472;2022-07-23T07:35:40;14.88;;;9.68;;
23714;SDS011;12036;50.858;4.472;2022-07-23T07:38:05;14.55;;;9.40;;
23714;SDS011;12036;50.858;4.472;2022-07-23T07:40:31;14.15;;;9.65;;
23714;SDS011;12036;50.858;4.472;2022-07-23T07:42:57;15.52;;;10.20;;
23714;SDS011;12036;50.858;4.472;2022-07-23T07:45:23;13.75;;;10.13;;
23714;SDS011;12036;50.858;4.472;2022-07-23T07:47:50;12.73;;;8.98;;
23714;SDS011;12036;50.858;4.472;2022-07-23T07:50:17;13.20;;;9.23;;
23714;SDS011;12036;50.858;4.472;2022-07-23T07:52:44;10.15;;;8.38;;
23714;SDS011;12036;50.858;4.472;2022-07-23T07:55:10;17.38;;;9.35;;
23714;SDS011;12036;50.858;4.472;2022-07-23T07:57:35;12.98;;;9.27;;
23714;SDS011;12036;50.858;4.472;2022-07-23T08:00:02;10.50;;;8.60;;
23714;SDS011;12036;50.858;4.472;2022-07-23T08:02:29;12.48;;;8.88;;
23714;SDS011;12036;50.858;4.472;2022-07-23T08:05:04;12.23;;;8.57;;
23714;SDS011;12036;50.858;4.472;2022-07-23T08:07:29;12.57;;;8.70;;
23714;SDS011;12036;50.858;4.472;2022-07-23T08:09:55;16.80;;;7.65;;
23714;SDS011;12036;50.858;4.472;2022-07-23T08:12:21;11.20;;;7.10;;
23714;SDS011;12036;50.858;4.472;2022-07-23T08:14:47;9.68;;;7.07;;
23714;SDS011;12036;50.858;4.472;2022-07-23T08:17:12;9.50;;;6.32;;
23714;SDS011;12036;50.858;4.472;2022-07-23T08:19:38;9.80;;;6.53;;
23714;SDS011;12036;50.858;4.472;2022-07-23T08:22:03;14.93;;;6.95;;
23714;SDS011;12036;50.858;4.472;2022-07-23T08:24:29;15.00;;;9.35;;
23714;SDS011;12036;50.858;4.472;2022-07-23T08:26:55;11.90;;;7.78;;
23714;SDS011;12036;50.858;4.472;2022-07-23T08:29:20;8.38;;;6.15;;
23714;SDS011;12036;50.858;4.472;2022-07-23T08:31:46;11.98;;;7.25;;
23714;SDS011;12036;50.858;4.472;2022-07-23T08:34:11;9.82;;;6.43;;
23714;SDS011;12036;50.858;4.472;2022-07-23T08:36:37;9.68;;;6.80;;
23714;SDS011;12036;50.858;4.472;2022-07-23T08:39:03;12.00;;;6.90;;
23714;SDS011;12036;50.858;4.472;2022-07-23T08:41:29;6.97;;;5.72;;
23714;SDS011;12036;50.858;4.472;2022-07-23T08:43:54;12.15;;;6.65;;
23714;SDS011;12036;50.858;4.472;2022-07-23T08:46:21;11.32;;;6.15;;
23714;SDS011;12036;50.858;4.472;2022-07-23T08:48:48;11.05;;;6.90;;
23714;SDS011;12036;50.858;4.472;2022-07-23T08:51:15;12.75;;;6.13;;
23714;SDS011;12036;50.858;4.472;2022-07-23T08:53:41;11.00;;;6.97;;
23714;SDS011;12036;50.858;4.472;2022-07-23T08:56:08;8.95;;;5.97;;
23714;SDS011;12036;50.858;4.472;2022-07-23T08:58:34;10.32;;;6.55;;
23714;SDS011;12036;50.858;4.472;2022-07-23T09:01:00;8.45;;;6.03;;
23714;SDS011;12036;50.858;4.472;2022-07-23T09:03:27;11.35;;;6.32;;
23714;SDS011;12036;50.858;4.472;2022-07-23T09:05:56;11.00;;;5.97;;
23714;SDS011;12036;50.858;4.472;2022-07-23T09:08:33;12.00;;;5.65;;
23714;SDS011;12036;50.858;4.472;2022-07-23T09:11:02;8.55;;;6.05;;
23714;SDS011;12036;50.858;4.472;2022-07-23T09:16:01;10.65;;;5.80;;
23714;SDS011;12036;50.858;4.472;2022-07-23T09:21:20;8.43;;;4.80;;
23714;SDS011;12036;50.858;4.472;2022-07-23T09:24:03;6.32;;;4.85;;
23714;SDS011;12036;50.858;4.472;2022-07-23T09:29:01;5.13;;;4.10;;
23714;SDS011;12036;50.858;4.472;2022-07-23T09:31:44;6.72;;;5.30;;
23714;SDS011;12036;50.858;4.472;2022-07-23T09:34:15;9.25;;;5.05;;
23714;SDS011;12036;50.858;4.472;2022-07-23T09:36:56;6.40;;;4.28;;
23714;SDS011;12036;50.858;4.472;2022-07-23T09:39:42;6.18;;;4.50;;
23714;SDS011;12036;50.858;4.472;2022-07-23T09:44:42;6.97;;;4.50;;
23714;SDS011;12036;50.858;4.472;2022-07-23T09:47:12;4.28;;;3.75;;
23714;SDS011;12036;50.858;4.472;2022-07-23T09:49:38;4.03;;;3.28;;
23714;SDS011;12036;50.858;4.472;2022-07-23T09:52:04;11.27;;;3.90;;
23714;SDS011;12036;50.858;4.472;2022-07-23T09:54:38;6.10;;;3.72;;
23714;SDS011;12036;50.858;4.472;2022-07-23T09:59:41;5.07;;;3.60;;
23714;SDS011;12036;50.858;4.472;2022-07-23T10:02:09;5.18;;;3.58;;
23714;SDS011;12036;50.858;4.472;2022-07-23T10:04:37;7.63;;;3.28;;
23714;SDS011;12036;50.858;4.472;2022-07-23T10:07:04;6.20;;;3.53;;
23714;SDS011;12036;50.858;4.472;2022-07-23T10:09:34;7.15;;;4.03;;
23714;SDS011;12036;50.858;4.472;2022-07-23T10:12:05;5.32;;;3.25;;
23714;SDS011;12036;50.858;4.472;2022-07-23T10:14:41;3.22;;;2.67;;
23714;SDS011;12036;50.858;4.472;2022-07-23T10:17:07;5.75;;;3.30;;
23714;SDS011;12036;50.858;4.472;2022-07-23T10:19:33;7.13;;;3.10;;
23714;SDS011;12036;50.858;4.472;2022-07-23T10:22:00;3.67;;;2.42;;
23714;SDS011;12036;50.858;4.472;2022-07-23T10:24:45;4.50;;;2.88;;
23714;SDS011;12036;50.858;4.472;2022-07-23T10:30:25;3.30;;;2.60;;
23714;SDS011;12036;50.858;4.472;2022-07-23T10:36:30;4.68;;;2.53;;
23714;SDS011;12036;50.858;4.472;2022-07-23T10:38:42;4.82;;;2.50;;
23714;SDS011;12036;50.858;4.472;2022-07-23T10:41:35;3.55;;;1.60;;
23714;SDS011;12036;50.858;4.472;2022-07-23T10:44:12;3.47;;;2.00;;
23714;SDS011;12036;50.858;4.472;2022-07-23T10:47:13;4.95;;;2.13;;
23714;SDS011;12036;50.858;4.472;2022-07-23T10:58:04;2.50;;;2.10;;
23714;SDS011;12036;50.858;4.472;2022-07-23T11:00:31;4.05;;;2.47;;
23714;SDS011;12036;50.858;4.472;2022-07-23T11:03:01;3.03;;;1.98;;
23714;SDS011;12036;50.858;4.472;2022-07-23T11:05:50;3.47;;;1.55;;
23714;SDS011;12036;50.858;4.472;2022-07-23T11:08:16;4.72;;;1.80;;
23714;SDS011;12036;50.858;4.472;2022-07-23T11:10:52;1.83;;;1.52;;
23714;SDS011;12036;50.858;4.472;2022-07-23T11:26:45;5.50;;;2.20;;
23714;SDS011;12036;50.858;4.472;2022-07-23T11:34:45;4.70;;;2.13;;
23714;SDS011;12036;50.858;4.472;2022-07-23T11:37:19;3.65;;;1.95;;
23714;SDS011;12036;50.858;4.472;2022-07-23T11:40:06;4.78;;;2.05;;
23714;SDS011;12036;50.858;4.472;2022-07-23T11:42:57;4.35;;;2.20;;
23714;SDS011;12036;50.858;4.472;2022-07-23T11:45:24;2.40;;;2.00;;
23714;SDS011;12036;50.858;4.472;2022-07-23T11:47:54;4.65;;;2.10;;
23714;SDS011;12036;50.858;4.472;2022-07-23T11:50:22;4.53;;;2.45;;
23714;SDS011;12036;50.858;4.472;2022-07-23T11:52:50;3.17;;;2.65;;
23714;SDS011;12036;50.858;4.472;2022-07-23T11:55:15;4.13;;;2.50;;
23714;SDS011;12036;50.858;4.472;2022-07-23T11:57:42;5.35;;;2.80;;
23714;SDS011;12036;50.858;4.472;2022-07-23T12:00:09;4.72;;;2.30;;
23714;SDS011;12036;50.858;4.472;2022-07-23T12:02:41;4.70;;;2.53;;
23714;SDS011;12036;50.858;4.472;2022-07-23T12:05:16;7.32;;;2.80;;
23714;SDS011;12036;50.858;4.472;2022-07-23T12:07:50;4.82;;;2.88;;
23714;SDS011;12036;50.858;4.472;2022-07-23T12:13:16;5.90;;;3.05;;
23714;SDS011;12036;50.858;4.472;2022-07-23T12:15:44;2.65;;;2.10;;
23714;SDS011;12036;50.858;4.472;2022-07-23T12:18:19;3.10;;;2.80;;
23714;SDS011;12036;50.858;4.472;2022-07-23T12:20:49;5.28;;;2.83;;
23714;SDS011;12036;50.858;4.472;2022-07-23T12:23:17;5.20;;;2.80;;
23714;SDS011;12036;50.858;4.472;2022-07-23T12:25:45;4.32;;;2.50;;
23714;SDS011;12036;50.858;4.472;2022-07-23T12:28:16;4.20;;;2.72;;
23714;SDS011;12036;50.858;4.472;2022-07-23T12:33:14;5.43;;;2.95;;
23714;SDS011;12036;50.858;4.472;2022-07-23T12:35:46;3.63;;;3.08;;
23714;SDS011;12036;50.858;4.472;2022-07-23T12:38:14;6.80;;;3.90;;
23714;SDS011;12036;50.858;4.472;2022-07-23T12:40:42;4.45;;;3.50;;
23714;SDS011;12036;50.858;4.472;2022-07-23T12:45:47;5.28;;;3.55;;
23714;SDS011;12036;50.858;4.472;2022-07-23T12:48:37;5.80;;;3.67;;
23714;SDS011;12036;50.858;4.472;2022-07-23T12:53:50;7.97;;;4.00;;
23714;SDS011;12036;50.858;4.472;2022-07-23T12:58:53;4.38;;;2.65;;
23714;SDS011;12036;50.858;4.472;2022-07-23T13:03:58;5.93;;;3.30;;
23714;SDS011;12036;50.858;4.472;2022-07-23T13:06:34;6.88;;;3.22;;
23714;SDS011;12036;50.858;4.472;2022-07-23T13:09:02;5.03;;;3.28;;
23714;SDS011;12036;50.858;4.472;2022-07-23T13:11:29;5.18;;;3.10;;
23714;SDS011;12036;50.858;4.472;2022-07-23T13:13:55;6.00;;;3.33;;
23714;SDS011;12036;50.858;4.472;2022-07-23T13:16:21;4.40;;;2.72;;
23714;SDS011;12036;50.858;4.472;2022-07-23T13:18:46;5.05;;;3.38;;
23714;SDS011;12036;50.858;4.472;2022-07-23T13:21:12;6.22;;;3.63;;
23714;SDS011;12036;50.858;4.472;2022-07-23T13:23:37;7.32;;;4.05;;
23714;SDS011;12036;50.858;4.472;2022-07-23T13:26:03;5.43;;;3.55;;
23714;SDS011;12036;50.858;4.472;2022-07-23T13:28:29;7.80;;;4.38;;
23714;SDS011;12036;50.858;4.472;2022-07-23T13:30:55;5.35;;;3.78;;
23714;SDS011;12036;50.858;4.472;2022-07-23T13:33:22;7.13;;;4.30;;
23714;SDS011;12036;50.858;4.472;2022-07-23T13:35:49;6.40;;;4.00;;
23714;SDS011;12036;50.858;4.472;2022-07-23T13:38:16;8.43;;;5.20;;
23714;SDS011;12036;50.858;4.472;2022-07-23T13:40:43;5.05;;;4.50;;
23714;SDS011;12036;50.858;4.472;2022-07-23T13:43:11;8.77;;;4.47;;
23714;SDS011;12036;50.858;4.472;2022-07-23T13:45:39;7.60;;;4.30;;
23714;SDS011;12036;50.858;4.472;2022-07-23T13:48:07;6.78;;;4.70;;
23714;SDS011;12036;50.858;4.472;2022-07-23T13:50:34;5.75;;;3.95;;
23714;SDS011;12036;50.858;4.472;2022-07-23T13:53:01;5.97;;;5.05;;
23714;SDS011;12036;50.858;4.472;2022-07-23T13:55:31;6.50;;;4.40;;
23714;SDS011;12036;50.858;4.472;2022-07-23T13:57:57;7.43;;;4.80;;
23714;SDS011;12036;50.858;4.472;2022-07-23T14:00:24;5.47;;;4.25;;
23714;SDS011;12036;50.858;4.472;2022-07-23T14:02:50;7.90;;;4.43;;
23714;SDS011;12036;50.858;4.472;2022-07-23T14:05:16;5.35;;;4.20;;
23714;SDS011;12036;50.858;4.472;2022-07-23T14:07:41;8.05;;;4.78;;
23714;SDS011;12036;50.858;4.472;2022-07-23T14:10:09;8.02;;;4.30;;
23714;SDS011;12036;50.858;4.472;2022-07-23T14:12:36;9.13;;;4.10;;
23714;SDS011;12036;50.858;4.472;2022-07-23T14:15:02;8.13;;;4.25;;
23714;SDS011;12036;50.858;4.472;2022-07-23T14:17:29;6.72;;;4.18;;
23714;SDS011;12036;50.858;4.472;2022-07-23T14:19:56;7.43;;;3.78;;
23714;SDS011;12036;50.858;4.472;2022-07-23T14:22:22;7.50;;;5.55;;
23714;SDS011;12036;50.858;4.472;2022-07-23T14:24:48;8.57;;;5.20;;
23714;SDS011;12036;50.858;4.472;2022-07-23T14:27:14;7.78;;;4.82;;
23714;SDS011;12036;50.858;4.472;2022-07-23T14:29:40;6.43;;;4.05;;
23714;SDS011;12036;50.858;4.472;2022-07-23T14:32:06;8.23;;;4.22;;
23714;SDS011;12036;50.858;4.472;2022-07-23T14:34:32;7.00;;;3.90;;
23714;SDS011;12036;50.858;4.472;2022-07-23T14:36:58;7.22;;;4.75;;
23714;SDS011;12036;50.858;4.472;2022-07-23T14:39:24;8.40;;;4.60;;
23714;SDS011;12036;50.858;4.472;2022-07-23T14:41:50;7.55;;;4.20;;
23714;SDS011;12036;50.858;4.472;2022-07-23T14:44:16;7.13;;;4.00;;
23714;SDS011;12036;50.858;4.472;2022-07-23T14:46:42;6.53;;;4.50;;
23714;SDS011;12036;50.858;4.472;2022-07-23T14:49:07;8.13;;;4.38;;
23714;SDS011;12036;50.858;4.472;2022-07-23T14:51:33;5.47;;;4.07;;
23714;SDS011;12036;50.858;4.472;2022-07-23T14:53:59;6.78;;;4.18;;
23714;SDS011;12036;50.858;4.472;2022-07-23T14:56:25;7.32;;;3.83;;
23714;SDS011;12036;50.858;4.472;2022-07-23T14:58:50;7.97;;;3.75;;
23714;SDS011;12036;50.858;4.472;2022-07-23T15:01:16;4.03;;;3.55;;
23714;SDS011;12036;50.858;4.472;2022-07-23T15:03:42;4.50;;;3.50;;
23714;SDS011;12036;50.858;4.472;2022-07-23T15:06:07;7.03;;;3.67;;
23714;SDS011;12036;50.858;4.472;2022-07-23T15:08:33;7.13;;;3.67;;
23714;SDS011;12036;50.858;4.472;2022-07-23T15:10:59;8.35;;;3.50;;
23714;SDS011;12036;50.858;4.472;2022-07-23T15:13:24;5.97;;;3.20;;
23714;SDS011;12036;50.858;4.472;2022-07-23T15:15:50;4.53;;;3.38;;
23714;SDS011;12036;50.858;4.472;2022-07-23T15:18:15;5.40;;;3.22;;
23714;SDS011;12036;50.858;4.472;2022-07-23T15:20:41;5.38;;;3.45;;
23714;SDS011;12036;50.858;4.472;2022-07-23T15:23:07;3.97;;;3.30;;
23714;SDS011;12036;50.858;4.472;2022-07-23T15:25:33;3.83;;;3.42;;
23714;SDS011;12036;50.858;4.472;2022-07-23T15:28:00;5.85;;;3.92;;
23714;SDS011;12036;50.858;4.472;2022-07-23T15:30:26;6.18;;;3.42;;
23714;SDS011;12036;50.858;4.472;2022-07-23T15:32:52;5.13;;;3.80;;
23714;SDS011;12036;50.858;4.472;2022-07-23T15:35:18;6.57;;;3.92;;
23714;SDS011;12036;50.858;4.472;2022-07-23T15:37:44;4.68;;;3.63;;